createdAt,value
2019-05-21T00:00:58.731Z,0.00
2019-05-21T00:01:58.725Z,0.00
2019-05-21T00:02:58.724Z,0.00
2019-05-21T00:03:58.698Z,0.00
2019-05-21T00:04:58.690Z,0.00
2019-05-21T00:05:58.682Z,0.00
2019-05-21T00:06:58.681Z,0.00
2019-05-21T00:07:58.666Z,0.00
2019-05-21T00:08:58.654Z,0.00
2019-05-21T00:09:58.634Z,0.00
2019-05-21T00:10:58.626Z,0.00
2019-05-21T00:11:58.612Z,0.00
2019-05-21T00:12:58.595Z,0.00
2019-05-21T00:13:58.617Z,0.00
2019-05-21T00:14:58.584Z,0.00
2019-05-21T00:15:58.574Z,0.00
2019-05-21T00:16:58.555Z,0.00
2019-05-21T00:17:58.553Z,0.00
2019-05-21T00:18:58.557Z,0.00
2019-05-21T00:19:58.539Z,0.00
2019-05-21T00:20:58.535Z,0.00
2019-05-21T00:21:58.531Z,0.00
2019-05-21T00:22:58.502Z,0.00
2019-05-21T00:23:58.509Z,0.00
2019-05-21T00:24:58.520Z,0.00
2019-05-21T00:25:58.486Z,0.00
2019-05-21T00:26:58.464Z,0.00
2019-05-21T00:27:58.460Z,0.00
2019-05-21T00:28:58.462Z,0.00
2019-05-21T00:29:58.477Z,0.00
2019-05-21T00:30:58.422Z,0.00
2019-05-21T00:31:58.422Z,0.00
2019-05-21T00:32:58.402Z,0.00
2019-05-21T00:33:58.414Z,0.00
2019-05-21T00:34:58.397Z,0.00
2019-05-21T00:35:58.381Z,0.00
2019-05-21T00:36:58.486Z,0.00
2019-05-21T00:37:58.374Z,0.00
2019-05-21T00:38:58.362Z,0.00
2019-05-21T00:39:58.340Z,0.00
2019-05-21T00:40:58.331Z,0.00
2019-05-21T00:41:58.326Z,0.00
2019-05-21T00:42:58.316Z,0.00
2019-05-21T00:43:58.310Z,0.00
2019-05-21T00:44:58.290Z,0.00
2019-05-21T00:45:58.291Z,0.00
2019-05-21T00:46:58.305Z,0.00
2019-05-21T00:47:58.270Z,0.00
2019-05-21T00:48:58.262Z,0.00
2019-05-21T00:49:58.265Z,0.00
2019-05-21T00:50:58.230Z,0.00
2019-05-21T00:52:07.110Z,0.00
2019-05-21T00:52:59.207Z,0.00
2019-05-21T00:53:58.228Z,0.00
2019-05-21T00:54:58.199Z,0.00
2019-05-21T00:55:58.189Z,0.00
2019-05-21T00:56:58.173Z,0.00
2019-05-21T00:57:58.182Z,0.00
2019-05-21T00:58:58.176Z,0.00
2019-05-21T00:59:58.138Z,0.00
2019-05-21T01:00:58.129Z,0.00
2019-05-21T01:01:58.125Z,0.00
2019-05-21T01:02:58.108Z,0.00
2019-05-21T01:03:58.109Z,0.00
2019-05-21T01:05:00.801Z,0.00
2019-05-21T01:05:58.111Z,0.00
2019-05-21T01:06:58.072Z,0.00
2019-05-21T01:07:58.060Z,0.00
2019-05-21T01:08:58.121Z,0.00
2019-05-21T01:09:58.047Z,0.00
2019-05-21T01:10:58.050Z,0.00
2019-05-21T01:11:58.017Z,0.00
2019-05-21T01:12:58.037Z,0.00
2019-05-21T01:13:58.004Z,0.00
2019-05-21T01:14:57.997Z,0.00
2019-05-21T01:15:58.012Z,0.00
2019-05-21T01:16:57.967Z,0.00
2019-05-21T01:17:57.961Z,0.00
2019-05-21T01:18:57.956Z,0.00
2019-05-21T01:19:57.964Z,0.00
2019-05-21T01:20:57.930Z,0.00
2019-05-21T01:21:57.957Z,0.00
2019-05-21T01:22:57.928Z,0.00
2019-05-21T01:23:57.896Z,0.00
2019-05-21T01:24:57.898Z,0.00
2019-05-21T01:25:57.875Z,0.00
2019-05-21T01:26:57.865Z,0.00
2019-05-21T01:27:57.855Z,0.00
2019-05-21T01:28:57.846Z,0.00
2019-05-21T01:29:57.858Z,0.00
2019-05-21T01:30:57.825Z,0.00
2019-05-21T01:31:57.816Z,0.00
2019-05-21T01:32:57.813Z,0.00
2019-05-21T01:33:57.804Z,0.00
2019-05-21T01:34:57.806Z,0.00
2019-05-21T01:35:57.785Z,0.00
2019-05-21T01:36:57.773Z,0.00
2019-05-21T01:37:57.762Z,0.00
2019-05-21T01:38:57.761Z,0.00
2019-05-21T01:39:57.753Z,0.00
2019-05-21T01:40:57.745Z,0.00
2019-05-21T01:41:57.726Z,0.00
2019-05-21T01:42:57.714Z,0.00
2019-05-21T01:43:57.706Z,0.00
2019-05-21T01:44:57.703Z,0.00
2019-05-21T01:45:57.695Z,0.00
2019-05-21T01:46:57.673Z,0.00
2019-05-21T01:47:57.685Z,0.00
2019-05-21T01:48:57.673Z,0.00
2019-05-21T01:49:57.647Z,0.00
2019-05-21T01:50:57.656Z,0.00
2019-05-21T01:51:57.628Z,0.00
2019-05-21T01:52:57.632Z,0.00
2019-05-21T01:53:57.627Z,0.00
2019-05-21T01:54:57.622Z,0.00
2019-05-21T01:55:57.598Z,0.00
2019-05-21T01:56:57.579Z,0.00
2019-05-21T01:57:57.572Z,0.00
2019-05-21T01:58:57.553Z,0.00
2019-05-21T01:59:57.542Z,0.00
2019-05-21T02:00:57.743Z,0.00
2019-05-21T02:01:57.521Z,0.00
2019-05-21T02:02:57.519Z,0.00
2019-05-21T02:03:57.507Z,0.00
2019-05-21T02:04:57.500Z,0.00
2019-05-21T02:05:57.495Z,0.00
2019-05-21T02:06:57.471Z,0.00
2019-05-21T02:07:57.461Z,0.00
2019-05-21T02:08:57.459Z,0.00
2019-05-21T02:09:57.451Z,0.00
2019-05-21T02:10:57.444Z,0.00
2019-05-21T02:11:57.423Z,0.00
2019-05-21T02:12:57.418Z,0.00
2019-05-21T02:13:57.400Z,0.00
2019-05-21T02:14:57.393Z,0.00
2019-05-21T02:15:57.392Z,0.00
2019-05-21T02:16:57.387Z,0.00
2019-05-21T02:17:57.369Z,0.00
2019-05-21T02:18:57.371Z,0.00
2019-05-21T02:19:57.380Z,0.00
2019-05-21T02:20:57.376Z,0.00
2019-05-21T02:21:57.332Z,0.00
2019-05-21T02:22:57.320Z,0.00
2019-05-21T02:23:57.299Z,0.00
2019-05-21T02:24:57.299Z,0.00
2019-05-21T02:25:57.299Z,0.00
2019-05-21T02:26:57.279Z,0.00
2019-05-21T02:27:57.270Z,0.00
2019-05-21T02:28:57.259Z,0.00
2019-05-21T02:29:57.247Z,0.00
2019-05-21T02:30:57.258Z,0.00
2019-05-21T02:31:57.231Z,0.00
2019-05-21T02:32:57.225Z,0.00
2019-05-21T02:33:57.211Z,0.00
2019-05-21T02:34:57.209Z,0.00
2019-05-21T02:35:57.200Z,0.00
2019-05-21T02:36:57.198Z,0.00
2019-05-21T02:37:57.168Z,0.00
2019-05-21T02:38:57.158Z,0.00
2019-05-21T02:39:57.156Z,0.00
2019-05-21T02:40:57.150Z,0.00
2019-05-21T02:41:57.139Z,0.00
2019-05-21T02:42:57.126Z,0.00
2019-05-21T02:43:57.112Z,0.00
2019-05-21T02:44:57.107Z,0.00
2019-05-21T02:45:57.100Z,0.00
2019-05-21T02:46:57.090Z,0.00
2019-05-21T02:47:57.081Z,0.00
2019-05-21T02:48:57.070Z,0.00
2019-05-21T02:49:57.057Z,0.00
2019-05-21T02:50:57.045Z,0.00
2019-05-21T02:51:57.040Z,0.00
2019-05-21T02:52:57.035Z,0.00
2019-05-21T02:53:57.017Z,0.00
2019-05-21T02:54:57.007Z,0.00
2019-05-21T02:55:56.996Z,0.00
2019-05-21T02:56:57.013Z,0.00
2019-05-21T02:57:56.983Z,0.00
2019-05-21T02:58:56.966Z,0.00
2019-05-21T02:59:56.956Z,0.00
2019-05-21T03:00:56.945Z,0.00
2019-05-21T03:01:56.944Z,0.00
2019-05-21T03:02:56.945Z,0.00
2019-05-21T03:03:56.915Z,0.00
2019-05-21T03:04:56.907Z,0.00
2019-05-21T03:06:12.384Z,0.00
2019-05-21T03:06:57.898Z,0.00
2019-05-21T03:07:56.883Z,0.00
2019-05-21T03:08:56.876Z,0.00
2019-05-21T03:09:56.856Z,0.00
2019-05-21T03:10:56.850Z,0.00
2019-05-21T03:11:56.844Z,0.00
2019-05-21T03:12:56.823Z,0.00
2019-05-21T03:13:56.813Z,0.00
2019-05-21T03:14:56.810Z,0.00
2019-05-21T03:15:56.793Z,0.00
2019-05-21T03:16:56.795Z,0.00
2019-05-21T03:17:56.774Z,0.00
2019-05-21T03:18:56.762Z,0.00
2019-05-21T03:19:56.752Z,0.00
2019-05-21T03:20:56.752Z,0.00
2019-05-21T03:21:56.744Z,0.00
2019-05-21T03:22:56.726Z,0.00
2019-05-21T03:23:56.717Z,0.00
2019-05-21T03:25:01.346Z,0.00
2019-05-21T03:25:57.704Z,4.00
2019-05-21T03:26:56.700Z,4.00
2019-05-21T03:27:56.682Z,4.00
2019-05-21T03:28:56.671Z,4.00
2019-05-21T03:29:56.661Z,4.00
2019-05-21T03:30:56.652Z,4.00
2019-05-21T03:31:56.651Z,4.00
2019-05-21T03:32:56.645Z,4.00
2019-05-21T03:33:56.620Z,4.00
2019-05-21T03:34:56.614Z,4.00
2019-05-21T03:35:56.608Z,4.00
2019-05-21T03:36:56.605Z,4.00
2019-05-21T03:37:56.591Z,4.00
2019-05-21T03:38:56.570Z,8.00
2019-05-21T03:39:56.558Z,8.00
2019-05-21T03:40:56.551Z,8.00
2019-05-21T03:41:56.553Z,4.00
2019-05-21T03:42:56.536Z,4.00
2019-05-21T03:43:56.511Z,4.00
2019-05-21T03:45:00.431Z,8.00
2019-05-21T03:45:56.523Z,4.00
2019-05-21T03:46:56.523Z,8.00
2019-05-21T03:47:56.484Z,4.00
2019-05-21T03:48:56.469Z,8.00
2019-05-21T03:49:56.462Z,8.00
2019-05-21T03:50:56.460Z,8.00
2019-05-21T03:51:56.449Z,8.00
2019-05-21T03:52:56.447Z,8.00
2019-05-21T03:53:56.440Z,12.00
2019-05-21T03:54:56.408Z,12.00
2019-05-21T03:55:56.413Z,8.00
2019-05-21T03:56:56.399Z,4.00
2019-05-21T03:57:56.387Z,8.00
2019-05-21T03:58:56.448Z,8.00
2019-05-21T03:59:56.365Z,12.00
2019-05-21T04:00:56.347Z,12.00
2019-05-21T04:01:56.358Z,12.00
2019-05-21T04:02:56.346Z,8.00
2019-05-21T04:03:56.318Z,16.00
2019-05-21T04:04:56.307Z,12.00
2019-05-21T04:05:56.302Z,16.00
2019-05-21T04:06:56.305Z,20.00
2019-05-21T04:07:56.336Z,24.00
2019-05-21T04:08:56.362Z,28.00
2019-05-21T04:09:56.286Z,24.00
2019-05-21T04:10:56.261Z,24.00
2019-05-21T04:11:56.254Z,32.00
2019-05-21T04:12:56.253Z,28.00
2019-05-21T04:13:56.244Z,24.00
2019-05-21T04:14:56.235Z,36.00
2019-05-21T04:15:56.197Z,48.00
2019-05-21T04:16:56.281Z,60.00
2019-05-21T04:17:56.188Z,60.00
2019-05-21T04:18:56.178Z,56.00
2019-05-21T04:19:56.166Z,48.00
2019-05-21T04:20:56.155Z,44.00
2019-05-21T04:21:56.154Z,40.00
2019-05-21T04:22:56.180Z,48.00
2019-05-21T04:23:56.127Z,52.00
2019-05-21T04:24:56.108Z,52.00
2019-05-21T04:25:56.116Z,68.00
2019-05-21T04:26:56.086Z,68.00
2019-05-21T04:27:56.110Z,72.00
2019-05-21T04:28:56.066Z,80.00
2019-05-21T04:29:56.065Z,84.00
2019-05-21T04:30:56.054Z,112.00
2019-05-21T04:31:56.049Z,108.00
2019-05-21T04:32:56.046Z,128.00
2019-05-21T04:33:56.025Z,144.00
2019-05-21T04:34:56.005Z,144.00
2019-05-21T04:35:55.995Z,136.00
2019-05-21T04:37:10.094Z,128.00
2019-05-21T04:37:57.263Z,160.00
2019-05-21T04:38:55.965Z,168.00
2019-05-21T04:39:55.961Z,172.00
2019-05-21T04:40:55.962Z,168.00
2019-05-21T04:41:55.935Z,168.00
2019-05-21T04:42:55.921Z,136.00
2019-05-21T04:43:55.922Z,128.00
2019-05-21T04:44:55.913Z,160.00
2019-05-21T04:45:55.883Z,164.00
2019-05-21T04:46:55.884Z,148.00
2019-05-21T04:47:55.881Z,152.00
2019-05-21T04:48:55.866Z,156.00
2019-05-21T04:49:55.854Z,168.00
2019-05-21T04:50:55.843Z,168.00
2019-05-21T04:51:55.838Z,184.00
2019-05-21T04:52:55.830Z,204.00
2019-05-21T04:53:55.823Z,204.00
2019-05-21T04:54:55.793Z,220.00
2019-05-21T04:55:55.790Z,224.00
2019-05-21T04:56:55.779Z,216.00
2019-05-21T04:57:55.762Z,200.00
2019-05-21T04:58:55.781Z,260.00
2019-05-21T04:59:55.741Z,224.00
2019-05-21T05:00:55.743Z,232.00
2019-05-21T05:01:55.739Z,236.00
2019-05-21T05:02:55.728Z,244.00
2019-05-21T05:03:55.715Z,228.00
2019-05-21T05:04:55.690Z,244.00
2019-05-21T05:05:55.680Z,252.00
2019-05-21T05:06:55.697Z,292.00
2019-05-21T05:07:55.670Z,344.00
2019-05-21T05:08:55.671Z,376.00
2019-05-21T05:09:55.649Z,336.00
2019-05-21T05:10:55.639Z,352.00
2019-05-21T05:11:55.629Z,320.00
2019-05-21T05:12:55.609Z,368.00
2019-05-21T05:13:55.613Z,316.00
2019-05-21T05:14:55.588Z,300.00
2019-05-21T05:15:55.587Z,356.00
2019-05-21T05:16:55.576Z,340.00
2019-05-21T05:17:55.571Z,364.00
2019-05-21T05:18:55.558Z,492.00
2019-05-21T05:19:55.542Z,664.00
2019-05-21T05:20:55.528Z,596.00
2019-05-21T05:21:55.516Z,544.00
2019-05-21T05:22:55.508Z,392.00
2019-05-21T05:23:55.506Z,376.00
2019-05-21T05:24:55.494Z,428.00
2019-05-21T05:25:55.517Z,444.00
2019-05-21T05:26:55.475Z,408.00
2019-05-21T05:27:55.458Z,500.00
2019-05-21T05:28:55.501Z,556.00
2019-05-21T05:29:55.438Z,584.00
2019-05-21T05:30:55.427Z,540.00
2019-05-21T05:31:55.416Z,368.00
2019-05-21T05:32:55.409Z,360.00
2019-05-21T05:33:55.417Z,360.00
2019-05-21T05:34:55.406Z,320.00
2019-05-21T05:35:55.382Z,332.00
2019-05-21T05:36:55.370Z,340.00
2019-05-21T05:37:55.366Z,344.00
2019-05-21T05:38:55.367Z,360.00
2019-05-21T05:39:55.354Z,412.00
2019-05-21T05:40:55.326Z,444.00
2019-05-21T05:41:55.320Z,464.00
2019-05-21T05:42:55.306Z,472.00
2019-05-21T05:43:55.342Z,468.00
2019-05-21T05:44:55.286Z,380.00
2019-05-21T05:45:55.278Z,452.00
2019-05-21T05:46:55.279Z,532.00
2019-05-21T05:47:55.278Z,548.00
2019-05-21T05:48:55.257Z,524.00
2019-05-21T05:49:55.236Z,488.00
2019-05-21T05:50:55.226Z,456.00
2019-05-21T05:51:55.250Z,516.00
2019-05-21T05:52:55.232Z,476.00
2019-05-21T05:53:55.209Z,460.00
2019-05-21T05:54:55.184Z,460.00
2019-05-21T05:55:55.183Z,468.00
2019-05-21T05:56:55.164Z,464.00
2019-05-21T05:57:55.163Z,460.00
2019-05-21T05:58:55.179Z,484.00
2019-05-21T05:59:55.133Z,436.00
2019-05-21T06:00:55.123Z,424.00
2019-05-21T06:01:55.149Z,496.00
2019-05-21T06:02:55.125Z,544.00
2019-05-21T06:03:55.123Z,568.00
2019-05-21T06:04:55.083Z,560.00
2019-05-21T06:05:55.075Z,544.00
2019-05-21T06:06:55.065Z,532.00
2019-05-21T06:07:59.699Z,620.00
2019-05-21T06:08:56.065Z,752.00
2019-05-21T06:09:55.040Z,704.00
2019-05-21T06:10:55.016Z,680.00
2019-05-21T06:11:55.011Z,660.00
2019-05-21T06:12:55.025Z,712.00
2019-05-21T06:13:54.981Z,680.00
2019-05-21T06:14:54.993Z,772.00
2019-05-21T06:15:55.020Z,724.00
2019-05-21T06:16:54.964Z,688.00
2019-05-21T06:17:55.044Z,756.00
2019-05-21T06:18:54.941Z,752.00
2019-05-21T06:19:54.965Z,664.00
2019-05-21T06:20:54.926Z,860.00
2019-05-21T06:21:54.914Z,1020.00
2019-05-21T06:22:54.901Z,776.00
2019-05-21T06:23:54.892Z,868.00
2019-05-21T06:24:54.881Z,840.00
2019-05-21T06:25:54.872Z,736.00
2019-05-21T06:26:54.859Z,732.00
2019-05-21T06:27:54.839Z,792.00
2019-05-21T06:28:54.837Z,712.00
2019-05-21T06:29:54.841Z,664.00
2019-05-21T06:30:54.822Z,640.00
2019-05-21T06:31:54.811Z,660.00
2019-05-21T06:32:54.792Z,728.00
2019-05-21T06:33:54.786Z,692.00
2019-05-21T06:34:54.779Z,676.00
2019-05-21T06:35:54.759Z,680.00
2019-05-21T06:36:54.755Z,856.00
2019-05-21T06:37:54.739Z,1044.00
2019-05-21T06:38:54.738Z,992.00
2019-05-21T06:39:54.719Z,1036.00
2019-05-21T06:40:54.699Z,1160.00
2019-05-21T06:41:54.698Z,1440.00
2019-05-21T06:42:54.684Z,1176.00
2019-05-21T06:43:54.678Z,1016.00
2019-05-21T06:44:54.667Z,1096.00
2019-05-21T06:45:54.665Z,944.00
2019-05-21T06:46:54.638Z,1072.00
2019-05-21T06:47:54.628Z,1276.00
2019-05-21T06:48:54.618Z,1296.00
2019-05-21T06:49:54.618Z,1332.00
2019-05-21T06:50:54.595Z,1496.00
2019-05-21T06:51:54.587Z,1468.00
2019-05-21T06:52:54.577Z,1552.00
2019-05-21T06:53:54.566Z,1696.00
2019-05-21T06:54:54.556Z,1452.00
2019-05-21T06:55:54.546Z,1548.00
2019-05-21T06:56:54.530Z,1396.00
2019-05-21T06:57:54.517Z,1192.00
2019-05-21T06:58:54.514Z,1512.00
2019-05-21T06:59:54.507Z,1284.00
2019-05-21T07:00:54.478Z,1460.00
2019-05-21T07:01:54.476Z,1724.00
2019-05-21T07:02:54.455Z,1588.00
2019-05-21T07:03:54.448Z,1424.00
2019-05-21T07:04:54.446Z,1504.00
2019-05-21T07:05:58.845Z,1640.00
2019-05-21T07:06:55.406Z,1504.00
2019-05-21T07:07:54.405Z,1412.00
2019-05-21T07:08:54.395Z,1236.00
2019-05-21T07:09:54.422Z,1604.00
2019-05-21T07:10:54.474Z,1428.00
2019-05-21T07:11:54.357Z,1184.00
2019-05-21T07:12:54.345Z,1216.00
2019-05-21T07:13:54.350Z,1348.00
2019-05-21T07:14:54.352Z,1484.00
2019-05-21T07:15:54.338Z,1696.00
2019-05-21T07:16:54.304Z,1520.00
2019-05-21T07:17:54.294Z,1876.00
2019-05-21T07:18:54.288Z,1808.00
2019-05-21T07:19:54.265Z,1940.00
2019-05-21T07:20:54.264Z,1976.00
2019-05-21T07:21:54.305Z,2204.00
2019-05-21T07:22:54.329Z,2176.00
2019-05-21T07:23:54.223Z,1588.00
2019-05-21T07:24:54.214Z,1508.00
2019-05-21T07:25:54.228Z,1296.00
2019-05-21T07:26:54.182Z,1240.00
2019-05-21T07:27:54.172Z,1248.00
2019-05-21T07:28:55.757Z,1128.00
2019-05-21T07:29:54.152Z,1256.00
2019-05-21T07:30:54.151Z,1284.00
2019-05-21T07:31:54.133Z,1356.00
2019-05-21T07:32:54.218Z,1532.00
2019-05-21T07:33:54.102Z,1904.00
2019-05-21T07:34:54.093Z,1644.00
2019-05-21T07:35:54.243Z,1644.00
2019-05-21T07:36:54.115Z,1636.00
2019-05-21T07:37:54.118Z,1360.00
2019-05-21T07:38:54.396Z,980.00
2019-05-21T07:39:54.041Z,988.00
2019-05-21T07:40:54.034Z,992.00
2019-05-21T07:41:54.022Z,1132.00
2019-05-21T07:42:54.013Z,972.00
2019-05-21T07:43:54.002Z,920.00
2019-05-21T07:44:53.981Z,920.00
2019-05-21T07:45:53.991Z,832.00
2019-05-21T07:46:53.961Z,968.00
2019-05-21T07:47:53.950Z,1024.00
2019-05-21T07:48:53.944Z,1076.00
2019-05-21T07:49:53.931Z,968.00
2019-05-21T07:50:53.944Z,1040.00
2019-05-21T07:51:53.919Z,1232.00
2019-05-21T07:52:53.890Z,1308.00
2019-05-21T07:53:53.890Z,1200.00
2019-05-21T07:54:53.868Z,1124.00
2019-05-21T07:55:53.869Z,1156.00
2019-05-21T07:56:53.929Z,1268.00
2019-05-21T07:57:53.845Z,1416.00
2019-05-21T07:58:53.832Z,1356.00
2019-05-21T07:59:53.819Z,1452.00
2019-05-21T08:00:53.818Z,1476.00
2019-05-21T08:01:53.798Z,1284.00
2019-05-21T08:02:53.795Z,1280.00
2019-05-21T08:03:53.889Z,1260.00
2019-05-21T08:04:53.776Z,1212.00
2019-05-21T08:05:53.758Z,1388.00
2019-05-21T08:06:53.734Z,1424.00
2019-05-21T08:07:53.741Z,1416.00
2019-05-21T08:09:11.825Z,1584.00
2019-05-21T08:09:54.697Z,1584.00
2019-05-21T08:10:53.698Z,1344.00
2019-05-21T08:11:53.678Z,1220.00
2019-05-21T08:12:53.676Z,1228.00
2019-05-21T08:13:53.656Z,1252.00
2019-05-21T08:14:53.661Z,1308.00
2019-05-21T08:15:53.655Z,1308.00
2019-05-21T08:16:53.628Z,1400.00
2019-05-21T08:17:53.607Z,1312.00
2019-05-21T08:18:53.609Z,1204.00
2019-05-21T08:19:53.587Z,1344.00
2019-05-21T08:20:53.586Z,1532.00
2019-05-21T08:21:53.594Z,1576.00
2019-05-21T08:22:53.567Z,1728.00
2019-05-21T08:23:53.545Z,1804.00
2019-05-21T08:24:53.536Z,1884.00
2019-05-21T08:25:53.538Z,1908.00
2019-05-21T08:26:53.535Z,2208.00
2019-05-21T08:27:53.512Z,1996.00
2019-05-21T08:28:53.486Z,1900.00
2019-05-21T08:29:53.467Z,1540.00
2019-05-21T08:30:53.490Z,1984.00
2019-05-21T08:31:53.447Z,1944.00
2019-05-21T08:32:53.435Z,1952.00
2019-05-21T08:33:53.425Z,2028.00
2019-05-21T08:34:53.414Z,1976.00
2019-05-21T08:35:53.405Z,1664.00
2019-05-21T08:36:53.404Z,1752.00
2019-05-21T08:37:53.391Z,2320.00
2019-05-21T08:38:53.376Z,2444.00
2019-05-21T08:39:53.394Z,2380.00
2019-05-21T08:40:53.344Z,2228.00
2019-05-21T08:41:53.357Z,1812.00
2019-05-21T08:42:53.326Z,1772.00
2019-05-21T08:43:53.329Z,2116.00
2019-05-21T08:44:53.314Z,1740.00
2019-05-21T08:45:53.292Z,1448.00
2019-05-21T08:46:53.295Z,1376.00
2019-05-21T08:47:53.293Z,1640.00
2019-05-21T08:48:53.254Z,1552.00
2019-05-21T08:49:53.247Z,1392.00
2019-05-21T08:50:53.238Z,1404.00
2019-05-21T08:51:53.233Z,1420.00
2019-05-21T08:52:53.212Z,1368.00
2019-05-21T08:53:53.231Z,1368.00
2019-05-21T08:54:56.138Z,1400.00
2019-05-21T08:55:53.172Z,1424.00
2019-05-21T08:56:53.173Z,1328.00
2019-05-21T08:58:06.312Z,1468.00
2019-05-21T08:58:54.156Z,1420.00
2019-05-21T08:59:53.133Z,1444.00
2019-05-21T09:00:53.123Z,1716.00
2019-05-21T09:01:53.113Z,1516.00
2019-05-21T09:02:53.165Z,1356.00
2019-05-21T09:03:53.090Z,1312.00
2019-05-21T09:04:53.074Z,1324.00
2019-05-21T09:05:53.061Z,1276.00
2019-05-21T09:06:53.074Z,1336.00
2019-05-21T09:07:54.156Z,1356.00
2019-05-21T09:08:53.021Z,1536.00
2019-05-21T09:09:53.039Z,1800.00
2019-05-21T09:10:53.000Z,1828.00
2019-05-21T09:11:53.028Z,2128.00
2019-05-21T09:12:52.984Z,1900.00
2019-05-21T09:13:52.961Z,1936.00
2019-05-21T09:14:52.966Z,2296.00
2019-05-21T09:15:52.950Z,2232.00
2019-05-21T09:16:52.939Z,2092.00
2019-05-21T09:17:52.932Z,2220.00
2019-05-21T09:18:52.909Z,2024.00
2019-05-21T09:19:52.903Z,1632.00
2019-05-21T09:20:52.890Z,1564.00
2019-05-21T09:21:52.928Z,1696.00
2019-05-21T09:22:52.868Z,1720.00
2019-05-21T09:23:52.862Z,1700.00
2019-05-21T09:24:52.838Z,1828.00
2019-05-21T09:25:52.827Z,1896.00
2019-05-21T09:26:52.828Z,1924.00
2019-05-21T09:27:52.822Z,1904.00
2019-05-21T09:28:52.798Z,2056.00
2019-05-21T09:29:52.787Z,2304.00
2019-05-21T09:30:52.809Z,2700.00
2019-05-21T09:31:52.775Z,3164.00
2019-05-21T09:32:52.778Z,3132.00
2019-05-21T09:33:52.737Z,3096.00
2019-05-21T09:34:52.738Z,3040.00
2019-05-21T09:35:52.722Z,2996.00
2019-05-21T09:36:52.708Z,3016.00
2019-05-21T09:37:52.721Z,3448.00
2019-05-21T09:38:52.786Z,3752.00
2019-05-21T09:39:52.671Z,2888.00
2019-05-21T09:40:52.665Z,2756.00
2019-05-21T09:41:52.653Z,2752.00
2019-05-21T09:42:52.656Z,3380.00
2019-05-21T09:43:52.626Z,3104.00
2019-05-21T09:44:52.615Z,2804.00
2019-05-21T09:45:52.605Z,2880.00
2019-05-21T09:46:52.635Z,2352.00
2019-05-21T09:47:52.590Z,2324.00
2019-05-21T09:48:55.533Z,2156.00
2019-05-21T09:49:52.585Z,2660.00
2019-05-21T09:50:52.546Z,2364.00
2019-05-21T09:51:52.551Z,2192.00
2019-05-21T09:52:52.540Z,2112.00
2019-05-21T09:53:52.517Z,2044.00
2019-05-21T09:54:52.505Z,2280.00
2019-05-21T09:55:52.495Z,2612.00
2019-05-21T09:56:52.474Z,2720.00
2019-05-21T09:57:52.486Z,2692.00
2019-05-21T09:58:52.525Z,2524.00
2019-05-21T09:59:52.444Z,2668.00
2019-05-21T10:00:52.450Z,3096.00
2019-05-21T10:01:52.430Z,2684.00
2019-05-21T10:02:52.424Z,2388.00
2019-05-21T10:03:52.402Z,2388.00
2019-05-21T10:04:52.393Z,1968.00
2019-05-21T10:05:52.391Z,1944.00
2019-05-21T10:06:52.363Z,1876.00
2019-05-21T10:07:52.363Z,2032.00
2019-05-21T10:08:52.369Z,2196.00
2019-05-21T10:09:52.349Z,2092.00
2019-05-21T10:10:52.331Z,1948.00
2019-05-21T10:11:52.360Z,1924.00
2019-05-21T10:12:52.297Z,2136.00
2019-05-21T10:13:52.297Z,2092.00
2019-05-21T10:14:52.264Z,1932.00
2019-05-21T10:15:52.261Z,1920.00
2019-05-21T10:16:52.253Z,1692.00
2019-05-21T10:17:52.271Z,1640.00
2019-05-21T10:18:52.222Z,1748.00
2019-05-21T10:19:52.211Z,1852.00
2019-05-21T10:20:52.197Z,1752.00
2019-05-21T10:21:52.185Z,1500.00
2019-05-21T10:22:52.174Z,1344.00
2019-05-21T10:23:52.208Z,1264.00
2019-05-21T10:24:52.146Z,1372.00
2019-05-21T10:25:52.146Z,1432.00
2019-05-21T10:26:52.130Z,1612.00
2019-05-21T10:27:52.111Z,1856.00
2019-05-21T10:28:52.113Z,1764.00
2019-05-21T10:29:52.132Z,1504.00
2019-05-21T10:30:52.093Z,1656.00
2019-05-21T10:31:52.080Z,1596.00
2019-05-21T10:32:52.057Z,1876.00
2019-05-21T10:33:52.059Z,1980.00
2019-05-21T10:34:52.037Z,2048.00
2019-05-21T10:35:52.029Z,2148.00
2019-05-21T10:36:52.010Z,2260.00
2019-05-21T10:37:54.983Z,2376.00
2019-05-21T10:38:52.011Z,2456.00
2019-05-21T10:39:51.989Z,2828.00
2019-05-21T10:40:51.959Z,2760.00
2019-05-21T10:41:51.984Z,3232.00
2019-05-21T10:42:51.967Z,3148.00
2019-05-21T10:43:51.957Z,3104.00
2019-05-21T10:44:51.910Z,2996.00
2019-05-21T10:45:51.912Z,3188.00
2019-05-21T10:46:51.890Z,3260.00
2019-05-21T10:47:51.884Z,3204.00
2019-05-21T10:48:51.899Z,2692.00
2019-05-21T10:49:51.870Z,2116.00
2019-05-21T10:50:51.850Z,2100.00
2019-05-21T10:51:51.829Z,1872.00
2019-05-21T10:52:51.829Z,1940.00
2019-05-21T10:53:51.831Z,2072.00
2019-05-21T10:54:51.803Z,2832.00
2019-05-21T10:55:51.788Z,2888.00
2019-05-21T10:56:51.786Z,2892.00
2019-05-21T10:57:51.782Z,2956.00
2019-05-21T10:58:51.784Z,2352.00
2019-05-21T10:59:51.737Z,1956.00
2019-05-21T11:00:51.728Z,2040.00
2019-05-21T11:01:51.752Z,1968.00
2019-05-21T11:02:51.742Z,2008.00
2019-05-21T11:03:51.709Z,1940.00
2019-05-21T11:04:51.682Z,2288.00
2019-05-21T11:06:08.626Z,2312.00
2019-05-21T11:06:52.657Z,2276.00
2019-05-21T11:07:51.639Z,1912.00
2019-05-21T11:08:51.647Z,1740.00
2019-05-21T11:09:51.631Z,2072.00
2019-05-21T11:10:51.616Z,2436.00
2019-05-21T11:11:51.608Z,2684.00
2019-05-21T11:12:51.590Z,2484.00
2019-05-21T11:13:51.616Z,2544.00
2019-05-21T11:14:51.570Z,2856.00
2019-05-21T11:15:51.558Z,2648.00
2019-05-21T11:16:51.527Z,2172.00
2019-05-21T11:18:09.221Z,2268.00
2019-05-21T11:18:52.555Z,2984.00
2019-05-21T11:19:51.501Z,3284.00
2019-05-21T11:20:51.833Z,2832.00
2019-05-21T11:21:51.484Z,2904.00
2019-05-21T11:22:51.465Z,3136.00
2019-05-21T11:23:51.544Z,3372.00
2019-05-21T11:24:51.485Z,4856.00
2019-05-21T11:25:51.435Z,4488.00
2019-05-21T11:26:51.415Z,3660.00
2019-05-21T11:27:51.414Z,3392.00
2019-05-21T11:28:51.396Z,3124.00
2019-05-21T11:29:51.397Z,3240.00
2019-05-21T11:30:51.436Z,4192.00
2019-05-21T11:31:56.917Z,3196.00
2019-05-21T11:32:52.361Z,3248.00
2019-05-21T11:33:51.335Z,3440.00
2019-05-21T11:34:51.335Z,2544.00
2019-05-21T11:35:51.342Z,2240.00
2019-05-21T11:36:51.301Z,2188.00
2019-05-21T11:37:51.303Z,1852.00
2019-05-21T11:38:51.296Z,2436.00
2019-05-21T11:39:51.282Z,2468.00
2019-05-21T11:40:51.508Z,2296.00
2019-05-21T11:41:51.781Z,2620.00
2019-05-21T11:42:53.156Z,2956.00
2019-05-21T11:43:51.223Z,3484.00
2019-05-21T11:44:51.213Z,3476.00
2019-05-21T11:45:51.203Z,3108.00
2019-05-21T11:46:51.194Z,3296.00
2019-05-21T11:47:54.416Z,2896.00
2019-05-21T11:48:51.167Z,2744.00
2019-05-21T11:49:51.186Z,2776.00
2019-05-21T11:50:51.133Z,2448.00
2019-05-21T11:51:51.123Z,2468.00
2019-05-21T11:52:51.112Z,2832.00
2019-05-21T11:53:51.309Z,3112.00
2019-05-21T11:54:51.127Z,2880.00
2019-05-21T11:55:51.083Z,2668.00
2019-05-21T11:56:51.071Z,3000.00
2019-05-21T11:57:51.051Z,2560.00
2019-05-21T11:58:51.034Z,2808.00
2019-05-21T11:59:51.044Z,3020.00
2019-05-21T12:00:51.027Z,2564.00
2019-05-21T12:01:51.064Z,2628.00
2019-05-21T12:02:51.056Z,2896.00
2019-05-21T12:03:50.971Z,3556.00
2019-05-21T12:04:50.993Z,3020.00
2019-05-21T12:05:50.975Z,4276.00
2019-05-21T12:06:50.964Z,3936.00
2019-05-21T12:07:50.945Z,3160.00
2019-05-21T12:08:56.656Z,2656.00
2019-05-21T12:09:51.931Z,2964.00
2019-05-21T12:10:50.891Z,3316.00
2019-05-21T12:11:50.883Z,3620.00
2019-05-21T12:12:50.873Z,3648.00
2019-05-21T12:13:50.868Z,2860.00
2019-05-21T12:14:50.959Z,2576.00
2019-05-21T12:15:50.841Z,2516.00
2019-05-21T12:16:50.834Z,2636.00
2019-05-21T12:17:50.810Z,2372.00
2019-05-21T12:18:50.995Z,2572.00
2019-05-21T12:19:50.863Z,2488.00
2019-05-21T12:20:50.814Z,2632.00
2019-05-21T12:21:50.804Z,3080.00
2019-05-21T12:22:50.777Z,3132.00
2019-05-21T12:23:50.760Z,3860.00
2019-05-21T12:24:50.763Z,3136.00
2019-05-21T12:25:50.719Z,3332.00
2019-05-21T12:26:50.752Z,3284.00
2019-05-21T12:27:50.749Z,3468.00
2019-05-21T12:28:50.755Z,3796.00
2019-05-21T12:29:50.668Z,3016.00
2019-05-21T12:30:50.674Z,2712.00
2019-05-21T12:31:50.649Z,2020.00
2019-05-21T12:32:50.639Z,1992.00
2019-05-21T12:33:50.676Z,1772.00